createdAt,value
2019-01-23T00:01:37.177Z,50.55
2019-01-23T00:04:08.269Z,47.23
2019-01-23T00:06:39.532Z,45.90
2019-01-23T00:09:21.909Z,46.48
2019-01-23T00:11:52.005Z,48.40
2019-01-23T00:14:22.127Z,49.30
2019-01-23T00:16:52.222Z,48.00
2019-01-23T00:19:22.340Z,45.52
2019-01-23T00:21:52.435Z,46.25
2019-01-23T00:24:22.549Z,46.18
2019-01-23T00:26:52.648Z,48.17
2019-01-23T00:29:23.832Z,48.20
2019-01-23T00:31:53.931Z,45.90
2019-01-23T00:34:24.044Z,48.70
2019-01-23T00:36:54.138Z,44.40
2019-01-23T00:39:24.269Z,45.05
2019-01-23T00:41:54.365Z,44.03
2019-01-23T00:44:24.494Z,47.33
2019-01-23T00:46:54.589Z,45.98
2019-01-23T00:49:24.708Z,45.35
2019-01-23T00:51:54.801Z,46.18
2019-01-23T00:54:25.187Z,45.05
2019-01-23T00:56:55.289Z,46.80
2019-01-23T00:59:25.405Z,45.88
2019-01-23T01:01:56.262Z,48.70
2019-01-23T01:04:26.525Z,46.35
2019-01-23T01:06:56.609Z,46.28
2019-01-23T01:09:26.733Z,46.95
2019-01-23T01:11:56.840Z,48.08
2019-01-23T01:14:26.971Z,43.73
2019-01-23T01:16:57.090Z,45.33
2019-01-23T01:19:27.201Z,45.95
2019-01-23T01:22:05.868Z,47.55
2019-01-23T01:24:35.977Z,44.23
2019-01-23T01:27:06.092Z,45.45
2019-01-23T01:29:36.211Z,42.95
2019-01-23T01:32:06.323Z,45.30
2019-01-23T01:34:36.443Z,45.75
2019-01-23T01:37:06.571Z,44.88
2019-01-23T01:39:36.692Z,44.65
2019-01-23T01:42:06.788Z,44.58
2019-01-23T01:44:36.896Z,32.55
2019-01-23T01:47:06.987Z,44.67
2019-01-23T01:49:37.115Z,43.58
2019-01-23T01:52:26.664Z,41.37
2019-01-23T01:54:56.758Z,41.98
2019-01-23T01:57:26.848Z,42.33
2019-01-23T01:59:56.974Z,41.48
2019-01-23T02:02:27.068Z,39.38
2019-01-23T02:04:57.173Z,39.90
2019-01-23T02:07:27.277Z,41.13
2019-01-23T02:09:57.396Z,40.73
2019-01-23T02:12:27.484Z,39.73
2019-01-23T02:14:57.593Z,38.45
2019-01-23T02:17:27.687Z,38.53
2019-01-23T02:19:57.825Z,38.98
2019-01-23T02:22:27.897Z,41.80
2019-01-23T02:24:58.021Z,40.08
2019-01-23T02:27:28.116Z,41.08
2019-01-23T02:29:58.235Z,42.08
2019-01-23T02:32:28.327Z,38.55
2019-01-23T02:34:58.449Z,37.28
2019-01-23T02:37:28.736Z,40.85
2019-01-23T02:39:58.834Z,40.45
2019-01-23T02:42:28.934Z,40.15
2019-01-23T02:44:59.039Z,35.45
2019-01-23T02:47:29.144Z,39.38
2019-01-23T02:49:59.265Z,41.05
2019-01-23T02:52:29.363Z,38.90
2019-01-23T02:54:59.473Z,41.20
2019-01-23T02:57:29.566Z,39.53
2019-01-23T03:00:00.646Z,39.53
2019-01-23T03:02:30.739Z,37.80
2019-01-23T03:05:00.872Z,33.20
2019-01-23T03:07:30.952Z,40.63
2019-01-23T03:10:01.076Z,40.63
2019-01-23T03:12:32.245Z,38.80
2019-01-23T03:15:02.394Z,40.00
2019-01-23T03:17:32.471Z,41.13
2019-01-23T03:20:02.588Z,40.63
2019-01-23T03:22:32.678Z,38.78
2019-01-23T03:25:02.960Z,38.98
2019-01-23T03:27:33.059Z,40.63
2019-01-23T03:30:05.024Z,38.75
2019-01-23T03:32:35.126Z,39.48
2019-01-23T03:35:08.956Z,37.15
2019-01-23T03:37:39.050Z,40.60
2019-01-23T03:40:16.312Z,39.73
2019-01-23T03:42:46.403Z,38.60
2019-01-23T03:45:17.721Z,38.85
2019-01-23T03:47:47.879Z,40.73
2019-01-23T03:50:19.453Z,39.05
2019-01-23T03:52:50.565Z,37.53
2019-01-23T03:55:20.711Z,38.90
2019-01-23T03:58:03.478Z,39.83
2019-01-23T04:00:33.564Z,39.70
2019-01-23T04:03:03.684Z,40.38
2019-01-23T04:05:33.778Z,37.63
2019-01-23T04:08:03.895Z,41.28
2019-01-23T04:10:33.994Z,36.25
2019-01-23T04:13:04.654Z,39.60
2019-01-23T04:15:34.751Z,38.42
2019-01-23T04:18:04.876Z,40.15
2019-01-23T04:20:34.978Z,38.67
2019-01-23T04:23:05.134Z,38.92
2019-01-23T04:25:35.294Z,41.35
2019-01-23T04:28:05.431Z,40.73
2019-01-23T04:30:35.545Z,39.30
2019-01-23T04:33:05.671Z,37.23
2019-01-23T04:35:55.190Z,39.40
2019-01-23T04:38:25.304Z,33.42
2019-01-23T04:40:55.391Z,40.05
2019-01-23T04:43:25.503Z,39.05
2019-01-23T04:45:55.638Z,36.95
2019-01-23T04:48:25.759Z,36.85
2019-01-23T04:51:06.604Z,41.58
2019-01-23T04:53:38.426Z,38.42
2019-01-23T04:56:08.522Z,38.75
2019-01-23T04:58:38.646Z,39.05
2019-01-23T05:01:08.744Z,40.28
2019-01-23T05:03:38.864Z,42.33
2019-01-23T05:06:08.953Z,40.88
2019-01-23T05:08:39.070Z,41.50
2019-01-23T05:11:09.167Z,43.20
2019-01-23T05:13:39.283Z,39.78
2019-01-23T05:16:09.378Z,36.90
2019-01-23T05:18:40.459Z,40.40
2019-01-23T05:21:10.555Z,34.83
2019-01-23T05:23:40.723Z,39.00
2019-01-23T05:26:10.769Z,39.60
2019-01-23T05:28:40.896Z,39.20
2019-01-23T05:31:10.997Z,40.33
2019-01-23T05:33:41.101Z,41.73
2019-01-23T05:36:11.189Z,36.33
2019-01-23T05:38:41.298Z,34.88
2019-01-23T05:41:11.397Z,31.73
2019-01-23T05:43:41.506Z,39.33
2019-01-23T05:46:11.603Z,41.18
2019-01-23T05:48:41.736Z,42.17
2019-01-23T05:51:11.842Z,42.35
2019-01-23T05:53:41.968Z,38.53
2019-01-23T05:56:12.067Z,43.98
2019-01-23T05:58:42.225Z,40.33
2019-01-23T06:01:12.433Z,41.00
2019-01-23T06:03:42.533Z,42.58
2019-01-23T06:06:12.663Z,38.75
2019-01-23T06:08:42.778Z,52.33
2019-01-23T06:11:12.869Z,42.23
2019-01-23T06:13:42.983Z,41.68
2019-01-23T06:16:13.131Z,33.33
2019-01-23T06:18:43.243Z,43.25
2019-01-23T06:21:13.352Z,38.88
2019-01-23T06:23:43.734Z,42.08
2019-01-23T06:26:13.843Z,44.13
2019-01-23T06:28:43.956Z,44.33
2019-01-23T06:31:14.049Z,26.70
2019-01-23T06:33:44.174Z,42.83
2019-01-23T06:36:14.271Z,42.95
2019-01-23T06:38:44.388Z,43.73
2019-01-23T06:41:16.496Z,42.90
2019-01-23T06:43:46.607Z,44.35
2019-01-23T06:46:16.698Z,41.35
2019-01-23T06:48:46.811Z,41.73
2019-01-23T06:51:16.920Z,44.85
2019-01-23T06:53:47.031Z,44.27
2019-01-23T06:59:11.586Z,42.55
2019-01-23T07:01:41.686Z,41.42
2019-01-23T07:04:11.792Z,31.42
2019-01-23T07:06:54.661Z,38.92
2019-01-23T07:09:24.777Z,44.67
2019-01-23T07:11:54.869Z,43.25
2019-01-23T07:14:24.986Z,42.85
2019-01-23T07:16:55.092Z,43.45
2019-01-23T07:19:25.221Z,43.25
2019-01-23T07:21:55.334Z,43.13
2019-01-23T07:24:25.421Z,44.88
2019-01-23T07:26:55.514Z,41.92
2019-01-23T07:29:25.630Z,42.08
2019-01-23T07:31:55.716Z,44.15
2019-01-23T07:34:25.998Z,46.50
2019-01-23T07:36:57.198Z,41.70
2019-01-23T07:39:27.312Z,46.05
2019-01-23T07:41:57.420Z,46.30
2019-01-23T07:44:27.564Z,48.38
2019-01-23T07:46:57.772Z,46.37
2019-01-23T07:49:27.889Z,46.83
2019-01-23T07:51:57.990Z,46.73
2019-01-23T07:54:28.106Z,42.23
2019-01-23T07:56:58.195Z,46.85
2019-01-23T07:59:28.360Z,47.25
2019-01-23T08:01:58.454Z,49.35
2019-01-23T08:04:28.570Z,52.80
2019-01-23T08:06:58.709Z,56.00
2019-01-23T08:09:28.824Z,54.25
2019-01-23T08:11:58.912Z,54.15
2019-01-23T08:14:29.024Z,37.42
2019-01-23T08:16:59.114Z,53.50
2019-01-23T08:19:29.233Z,53.80
2019-01-23T08:21:59.328Z,53.33
2019-01-23T08:24:29.441Z,52.00
2019-01-23T08:26:59.553Z,51.50
2019-01-23T08:29:29.645Z,53.05
2019-01-23T08:31:59.752Z,55.85
2019-01-23T08:34:29.841Z,56.68
2019-01-23T08:36:59.960Z,57.90
2019-01-23T08:39:30.160Z,58.00
2019-01-23T08:42:00.276Z,61.33
2019-01-23T08:44:30.376Z,60.10
2019-01-23T08:47:01.722Z,61.73
2019-01-23T08:49:31.818Z,60.83
2019-01-23T08:52:01.930Z,61.23
2019-01-23T08:54:32.046Z,63.73
2019-01-23T08:57:02.182Z,65.00
2019-01-23T08:59:32.365Z,64.67
2019-01-23T09:02:02.455Z,65.80
2019-01-23T09:04:32.568Z,65.17
2019-01-23T09:07:02.659Z,64.62
2019-01-23T09:09:32.769Z,61.58
2019-01-23T09:12:02.866Z,70.47
2019-01-23T09:14:33.150Z,65.30
2019-01-23T09:17:03.239Z,65.35
2019-01-23T09:19:33.365Z,68.22
2019-01-23T09:22:03.546Z,67.42
2019-01-23T09:24:33.646Z,70.57
2019-01-23T09:27:03.744Z,74.42
2019-01-23T09:29:33.858Z,70.05
2019-01-23T09:32:23.461Z,71.40
2019-01-23T09:35:03.998Z,70.95
2019-01-23T09:37:44.235Z,76.25
2019-01-23T09:40:24.716Z,70.75
2019-01-23T09:43:11.637Z,75.30
2019-01-23T09:46:04.541Z,75.72
2019-01-23T09:48:51.562Z,81.02
2019-01-23T09:52:01.585Z,74.95
2019-01-23T09:54:32.677Z,82.20
2019-01-23T09:57:02.769Z,76.85
2019-01-23T09:59:32.919Z,75.03
2019-01-23T10:02:03.018Z,76.05
2019-01-23T10:04:33.144Z,81.65
2019-01-23T10:07:03.271Z,78.47
2019-01-23T10:09:34.003Z,69.62
2019-01-23T10:12:04.167Z,79.85
2019-01-23T10:14:34.262Z,78.85
2019-01-23T10:17:05.370Z,78.90
2019-01-23T10:19:35.458Z,77.58
2019-01-23T10:22:05.573Z,81.53
2019-01-23T10:24:36.161Z,82.10
2019-01-23T10:27:06.357Z,82.20
2019-01-23T10:29:36.460Z,64.15
2019-01-23T10:32:06.589Z,81.37
2019-01-23T10:34:36.688Z,83.03
2019-01-23T10:37:06.792Z,79.00
2019-01-23T10:39:56.315Z,84.07
2019-01-23T10:42:38.617Z,85.72
2019-01-23T10:45:11.752Z,74.97
2019-01-23T10:47:42.120Z,83.50
2019-01-23T10:50:15.804Z,81.28
2019-01-23T10:52:45.891Z,86.25
2019-01-23T10:55:15.994Z,87.08
2019-01-23T10:57:46.126Z,84.58
2019-01-23T11:00:22.155Z,89.05
2019-01-23T11:02:52.239Z,91.15
2019-01-23T11:05:24.260Z,89.92
2019-01-23T11:07:54.376Z,89.00
2019-01-23T11:10:28.250Z,92.75
2019-01-23T11:12:58.336Z,91.08
2019-01-23T11:15:28.440Z,92.82
2019-01-23T11:17:58.521Z,89.50
2019-01-23T11:20:31.980Z,94.13
2019-01-23T11:23:02.119Z,89.55
2019-01-23T11:25:32.223Z,88.82
2019-01-23T11:28:02.316Z,85.70
2019-01-23T11:30:32.983Z,92.90
2019-01-23T11:33:03.180Z,84.87
2019-01-23T11:35:33.242Z,87.92
2019-01-23T11:38:03.328Z,90.72
2019-01-23T11:40:33.435Z,84.67
2019-01-23T11:43:03.614Z,88.50
2019-01-23T11:45:33.724Z,85.65
2019-01-23T11:48:04.081Z,72.62
2019-01-23T11:50:34.163Z,82.78
2019-01-23T11:53:04.821Z,75.50
2019-01-23T11:55:34.932Z,86.85
2019-01-23T11:58:05.025Z,83.55
2019-01-23T12:00:36.509Z,85.47
2019-01-23T12:03:07.165Z,83.92
2019-01-23T12:05:37.315Z,84.42
2019-01-23T12:08:07.411Z,81.85
2019-01-23T12:10:37.522Z,84.83
2019-01-23T12:13:07.639Z,85.70
2019-01-23T12:15:41.037Z,85.55
2019-01-23T12:18:09.550Z,83.03
2019-01-23T12:20:39.643Z,84.50
2019-01-23T12:23:09.999Z,83.00
2019-01-23T12:25:40.155Z,81.02
2019-01-23T12:28:10.609Z,85.80
2019-01-23T12:30:40.676Z,75.15
2019-01-23T12:33:10.792Z,80.87
2019-01-23T12:35:40.930Z,78.17
2019-01-23T12:38:11.041Z,75.45
2019-01-23T12:40:41.188Z,72.08
2019-01-23T12:43:11.286Z,82.80
2019-01-23T12:45:41.414Z,86.17
2019-01-23T12:48:14.551Z,79.82
2019-01-23T12:50:44.728Z,82.15
2019-01-23T12:53:15.199Z,79.90
2019-01-23T12:55:45.290Z,80.65
2019-01-23T12:58:16.374Z,62.98
2019-01-23T13:00:46.529Z,79.60
2019-01-23T13:03:16.777Z,78.50
2019-01-23T13:05:46.888Z,76.40
2019-01-23T13:08:17.012Z,82.42
2019-01-23T13:10:47.101Z,78.97
2019-01-23T13:13:17.229Z,80.35
2019-01-23T13:15:47.325Z,79.72
2019-01-23T13:18:17.448Z,82.15
2019-01-23T13:20:47.550Z,85.75
2019-01-23T13:23:19.861Z,81.10
2019-01-23T13:25:49.490Z,83.40
2019-01-23T13:28:19.586Z,76.22
2019-01-23T13:30:49.715Z,76.92
2019-01-23T13:33:19.828Z,74.40
2019-01-23T13:35:49.952Z,73.07
2019-01-23T13:38:20.051Z,72.12
2019-01-23T13:40:50.180Z,72.45
2019-01-23T13:43:20.274Z,62.48
2019-01-23T13:45:50.400Z,78.30
2019-01-23T13:48:20.495Z,72.95
2019-01-23T13:50:50.701Z,76.57
2019-01-23T13:53:20.793Z,77.30
2019-01-23T13:55:50.918Z,77.03
2019-01-23T13:58:21.017Z,74.82
2019-01-23T14:00:52.122Z,73.57
2019-01-23T14:03:22.220Z,76.47
2019-01-23T14:05:52.417Z,71.75
2019-01-23T14:08:22.533Z,71.40
2019-01-23T14:10:52.620Z,73.30
2019-01-23T14:13:22.777Z,67.00
2019-01-23T14:15:52.859Z,68.15
2019-01-23T14:18:22.992Z,67.58
2019-01-23T14:20:53.093Z,63.70
2019-01-23T14:23:23.226Z,69.45
2019-01-23T14:25:53.321Z,64.47
2019-01-23T14:28:23.446Z,65.22
2019-01-23T14:30:53.557Z,63.83
2019-01-23T14:33:23.671Z,60.48
2019-01-23T14:35:53.928Z,58.17
2019-01-23T14:38:24.097Z,47.23
2019-01-23T14:40:54.189Z,54.70
2019-01-23T14:43:24.306Z,54.65
2019-01-23T14:45:54.397Z,54.88
2019-01-23T14:48:24.541Z,49.00
2019-01-23T14:50:54.646Z,50.55
2019-01-23T14:53:24.936Z,50.35
2019-01-23T14:55:55.042Z,45.20
2019-01-23T14:58:25.221Z,51.40
2019-01-23T15:00:55.321Z,49.05
2019-01-23T15:03:26.425Z,38.53
2019-01-23T15:05:56.518Z,46.10
2019-01-23T15:08:26.638Z,46.98
2019-01-23T15:10:56.741Z,40.25
2019-01-23T15:13:27.060Z,47.23
2019-01-23T15:15:57.160Z,47.15
2019-01-23T15:18:27.295Z,45.65
2019-01-23T15:20:57.393Z,44.38
2019-01-23T15:23:27.514Z,45.88
2019-01-23T15:25:57.614Z,44.75
2019-01-23T15:28:27.764Z,44.30
2019-01-23T15:30:57.868Z,42.75
2019-01-23T15:33:27.993Z,45.10
2019-01-23T15:35:58.096Z,45.05
2019-01-23T15:38:28.226Z,46.98
2019-01-23T15:40:58.329Z,63.45
2019-01-23T15:43:28.450Z,47.53
2019-01-23T15:45:58.546Z,47.20
2019-01-23T15:48:28.725Z,47.70
2019-01-23T15:50:58.820Z,44.95
2019-01-23T15:53:29.020Z,39.88
2019-01-23T15:55:59.131Z,43.00
2019-01-23T15:58:29.315Z,43.58
2019-01-23T16:00:59.380Z,44.67
2019-01-23T16:03:29.952Z,42.27
2019-01-23T16:06:00.046Z,38.50
2019-01-23T16:08:30.177Z,40.48
2019-01-23T16:11:00.275Z,39.25
2019-01-23T16:13:31.042Z,36.93
2019-01-23T16:16:01.168Z,35.95
2019-01-23T16:18:31.909Z,36.08
2019-01-23T16:21:01.987Z,36.83
2019-01-23T16:23:32.336Z,33.35
2019-01-23T16:26:02.432Z,20.15
2019-01-23T16:28:32.600Z,34.83
2019-01-23T16:31:02.697Z,29.48
2019-01-23T16:33:32.852Z,32.17
2019-01-23T16:36:06.302Z,29.42
2019-01-23T16:38:36.430Z,33.48
2019-01-23T16:41:06.530Z,27.40
2019-01-23T16:43:36.900Z,24.92
2019-01-23T16:46:08.361Z,31.27
2019-01-23T16:48:58.071Z,29.87
2019-01-23T16:51:28.155Z,30.00
2019-01-23T16:54:17.711Z,31.23
2019-01-23T16:56:47.889Z,31.82
2019-01-23T16:59:18.008Z,24.37
2019-01-23T17:01:55.482Z,28.32
2019-01-23T17:04:25.646Z,28.60
2019-01-23T17:06:59.214Z,26.87
2019-01-23T17:09:29.340Z,28.35
2019-01-23T17:11:59.437Z,27.35
2019-01-23T17:14:29.576Z,27.75
2019-01-23T17:16:59.808Z,29.02
2019-01-23T17:19:29.936Z,25.27
2019-01-23T17:22:00.037Z,28.65
2019-01-23T17:24:30.153Z,28.80
2019-01-23T17:27:00.256Z,27.70
2019-01-23T17:29:50.041Z,26.82
2019-01-23T17:32:02.285Z,24.00
2019-01-23T17:34:32.429Z,22.05
2019-01-23T17:37:02.615Z,25.80
2019-01-23T17:39:32.815Z,25.35
2019-01-23T17:42:03.008Z,26.73
2019-01-23T17:44:33.104Z,22.62
2019-01-23T17:47:03.213Z,26.45
2019-01-23T17:49:33.344Z,26.55
2019-01-23T17:52:03.439Z,28.60
2019-01-23T17:54:34.394Z,23.57
2019-01-23T17:57:04.683Z,21.85
2019-01-23T17:59:34.803Z,27.82
2019-01-23T18:02:04.924Z,24.10
2019-01-23T18:04:35.096Z,28.07
2019-01-23T18:07:05.181Z,27.45
2019-01-23T18:09:35.303Z,26.40
2019-01-23T18:12:05.395Z,26.05
2019-01-23T18:14:35.970Z,26.75
2019-01-23T18:17:06.164Z,28.00
2019-01-23T18:19:37.261Z,28.38
2019-01-23T18:22:07.357Z,28.45
2019-01-23T18:24:37.481Z,26.70
2019-01-23T18:27:07.730Z,27.05
2019-01-23T18:29:51.311Z,25.30
2019-01-23T18:32:21.403Z,20.82
2019-01-23T18:35:02.096Z,25.90
2019-01-23T18:37:46.381Z,25.60
2019-01-23T18:40:32.506Z,25.70
2019-01-23T18:43:31.057Z,26.87
2019-01-23T18:46:09.020Z,25.27
2019-01-23T18:48:47.208Z,23.55
2019-01-23T18:51:20.649Z,24.10
2019-01-23T18:53:50.828Z,26.12
2019-01-23T18:56:21.992Z,26.55
2019-01-23T18:58:52.189Z,26.77
2019-01-23T19:01:22.328Z,27.07
2019-01-23T19:03:52.421Z,32.95
2019-01-23T19:06:22.544Z,27.50
2019-01-23T19:08:52.659Z,29.75
2019-01-23T19:11:23.684Z,29.25
2019-01-23T19:13:53.790Z,29.02
2019-01-23T19:16:24.075Z,26.95
2019-01-23T19:18:54.211Z,25.48
2019-01-23T19:21:24.327Z,28.35
2019-01-23T19:23:54.422Z,25.72
2019-01-23T19:26:24.546Z,26.93
2019-01-23T19:28:54.643Z,29.57
2019-01-23T19:31:24.771Z,27.93
2019-01-23T19:33:55.027Z,27.48
2019-01-23T19:36:25.341Z,24.60
2019-01-23T19:38:55.438Z,26.93
2019-01-23T19:41:25.565Z,28.10
2019-01-23T19:43:55.653Z,27.82
2019-01-23T19:46:25.844Z,26.85
2019-01-23T19:48:55.924Z,26.80
2019-01-23T19:51:26.378Z,25.55
2019-01-23T19:53:56.469Z,28.17
2019-01-23T19:56:26.592Z,27.13
2019-01-23T19:58:56.759Z,26.97
2019-01-23T20:01:26.885Z,28.02
2019-01-23T20:03:56.985Z,27.58
2019-01-23T20:06:27.106Z,37.98
2019-01-23T20:09:16.638Z,26.42
2019-01-23T20:11:46.761Z,29.40
2019-01-23T20:14:18.093Z,28.87
2019-01-23T20:16:48.236Z,28.23
2019-01-23T20:19:37.804Z,27.90
2019-01-23T20:22:07.919Z,28.85
2019-01-23T20:24:38.021Z,29.55
2019-01-23T20:27:08.141Z,31.30
2019-01-23T20:29:38.234Z,28.67
2019-01-23T20:32:08.460Z,28.87
2019-01-23T20:34:39.609Z,29.42
2019-01-23T20:37:09.728Z,28.73
2019-01-23T20:39:39.824Z,28.02
2019-01-23T20:42:09.948Z,29.05
2019-01-23T20:44:40.038Z,27.58
2019-01-23T20:47:10.159Z,29.80
2019-01-23T20:49:40.253Z,29.00
2019-01-23T20:52:10.384Z,29.90
2019-01-23T20:54:40.501Z,27.62
2019-01-23T20:57:10.623Z,30.72
2019-01-23T20:59:40.726Z,30.08
2019-01-23T21:02:10.854Z,28.10
2019-01-23T21:04:40.949Z,30.95
2019-01-23T21:07:11.083Z,29.95
2019-01-23T21:09:41.177Z,30.80
2019-01-23T21:12:11.330Z,29.45
2019-01-23T21:14:41.421Z,29.63
2019-01-23T21:17:11.549Z,29.55
2019-01-23T21:19:41.642Z,28.47
2019-01-23T21:22:11.776Z,30.20
2019-01-23T21:24:41.873Z,30.97
2019-01-23T21:27:11.998Z,28.92
2019-01-23T21:29:42.086Z,31.90
2019-01-23T21:32:12.211Z,30.88
2019-01-23T21:34:42.300Z,29.85
2019-01-23T21:37:12.428Z,28.30
2019-01-23T21:39:42.532Z,29.72
2019-01-23T21:42:12.656Z,29.87
2019-01-23T21:44:42.761Z,28.27
2019-01-23T21:47:12.890Z,30.15
2019-01-23T21:49:42.985Z,30.62
2019-01-23T21:52:13.118Z,27.45
2019-01-23T21:54:43.247Z,29.48
2019-01-23T21:57:13.365Z,27.32
2019-01-23T21:59:43.466Z,28.67
2019-01-23T22:02:13.628Z,27.73
2019-01-23T22:04:43.677Z,29.92
2019-01-23T22:07:13.863Z,29.98
2019-01-23T22:09:43.964Z,28.23
2019-01-23T22:12:14.085Z,27.40
2019-01-23T22:14:44.185Z,27.70
2019-01-23T22:17:14.691Z,28.55
2019-01-23T22:19:44.786Z,28.62
2019-01-23T22:22:14.901Z,28.75
2019-01-23T22:24:44.992Z,27.40
2019-01-23T22:27:15.110Z,28.75
2019-01-23T22:29:45.199Z,27.45
2019-01-23T22:32:15.898Z,28.73
2019-01-23T22:34:46.067Z,29.60
2019-01-23T22:37:16.175Z,29.27
2019-01-23T22:39:46.278Z,28.55
2019-01-23T22:42:16.409Z,27.98
2019-01-23T22:44:46.508Z,29.52
2019-01-23T22:47:16.621Z,29.72
2019-01-23T22:49:46.708Z,30.95
2019-01-23T22:52:16.821Z,30.00
2019-01-23T22:54:46.932Z,28.25
2019-01-23T22:57:18.018Z,29.52
2019-01-23T22:59:48.109Z,29.80
2019-01-23T23:02:18.221Z,28.45
2019-01-23T23:04:48.320Z,28.77
2019-01-23T23:07:18.436Z,26.55
2019-01-23T23:09:48.603Z,28.62
2019-01-23T23:12:18.724Z,28.32
2019-01-23T23:14:48.816Z,28.45
2019-01-23T23:17:19.010Z,28.87
2019-01-23T23:19:49.143Z,25.90
2019-01-23T23:22:19.259Z,26.65
2019-01-23T23:24:50.318Z,27.58
2019-01-23T23:27:20.435Z,28.12
2019-01-23T23:29:50.528Z,27.02
2019-01-23T23:32:20.637Z,27.60
2019-01-23T23:34:50.808Z,19.12
2019-01-23T23:37:20.942Z,27.73
2019-01-23T23:39:51.037Z,28.00
2019-01-23T23:42:21.255Z,28.50
2019-01-23T23:44:51.380Z,28.32
2019-01-23T23:47:21.597Z,26.23
2019-01-23T23:49:51.689Z,26.52
2019-01-23T23:52:21.802Z,27.98
2019-01-23T23:54:51.906Z,26.55
2019-01-23T23:57:22.018Z,26.45
2019-01-23T23:59:52.173Z,27.73
